FW1137 Weather Reports


Display with metric or nautical units.
time (UTC)temp
F
wind
direction
speed
MPH
gust
MPH
rain 1hr
in
rain 24hr
in
rain mn
in
humidity
%
barometer
mb
20190425203109 74 18 1.0 2.0 0.00 0.00 0.00 57 1009.9
20190425200139 73 79 0.0 1.0 0.00 0.00 0.00 61 1010.4
20190425194611 73 286 0.0 2.0 0.00 0.00 0.00 62 1010.0
20190425191538 73 89 0.0 1.0 0.00 0.00 0.00 64 1010.0
20190425184633 73 103 0.0 1.0 0.00 0.00 0.00 60 1010.5
20190425183042 73 86 0.0 1.0 0.00 0.00 0.00 61 1010.4
20190425180233 74 65 0.0 1.0 0.00 0.00 0.00 63 1010.3
20190425174539 74 281 0.0 1.0 0.00 0.00 0.00 63 1010.1
20190425171628 73 283 0.0 2.0 0.00 0.00 0.00 65 1010.5
20190425170019 73 52 0.0 1.0 0.00 0.00 0.00 68 1010.8
20190425164828 73 87 0.0 1.0 0.00 0.00 0.00 67 1011.1
20190425163036 72 273 0.0 1.0 0.00 0.00 0.00 71 1011.2
20190425160118 72 274 0.0 1.0 0.00 0.00 0.00 69 1011.1
20190425154616 72 276 0.0 1.0 0.00 0.00 0.00 71 1011.1
20190425150220 69 109 0.0 3.0 0.00 0.00 0.00 77 1012.1
20190425141646 67 110 0.0 1.0 0.00 0.00 0.00 82 1012.4
20190425134658 66 111 0.0 1.0 0.00 0.00 0.00 83 1012.4
20190425133039 65 105 0.0 1.0 0.00 0.00 0.00 85 1012.5
20190425130131 64 117 0.0 1.0 0.00 0.00 0.00 85 1012.5
20190425123235 62 120 0.0 0.0 0.00 0.00 0.00 87 1011.9
20190425121540 62 120 0.0 0.0 0.00 0.00 0.00 87 1012.0
20190425113105 61 118 0.0 0.0 0.00 0.00 0.00 87 1012.4
20190425111506 61 118 0.0 0.0 0.00 0.00 0.00 85 1011.9
20190425110212 61 118 0.0 0.0 0.00 0.00 0.00 84 1012.1
20190425104535 62 118 0.0 0.0 0.00 0.00 0.00 84 1012.1
20190425101642 62 118 0.0 0.0 0.00 0.00 0.00 84 1011.8
20190425091605 62 118 0.0 0.0 0.00 0.00 0.00 82 1011.5
20190425090002 62 118 0.0 0.0 0.00 0.00 0.00 81 1011.7
20190425084912 62 118 0.0 0.0 0.00 0.00 0.00 80 1011.7
20190425083121 63 118 0.0 0.0 0.00 0.00 0.00 79 1011.6
20190425080125 63 118 0.0 0.0 0.00 0.00 0.00 76 1011.7
20190425073101 64 118 0.0 0.0 0.00 0.00 0.00 74 1011.7
20190425070118 65 118 0.0 1.0 0.00 0.00 0.00 71 1011.8
20190425063137 65 118 0.0 0.0 0.00 0.00 0.00 69 1011.9
20190425060111 66 119 0.0 0.0 0.00 0.00 0.00 66 1012.1
20190425053044 67 119 0.0 1.0 0.00 0.00 0.00 64 1012.2
20190425050120 67 119 0.0 0.0 0.00 0.00 0.00 61 1012.2
20190425043206 68 119 0.0 0.0 0.00 0.00 0.00 58 1012.4
20190425040158 68 119 0.0 0.0 0.00 0.00 0.00 55 1012.5
20190425034622 69 119 0.0 0.0 0.00 0.00 0.00 54 1012.3
20190425033034 69 119 0.0 0.0 0.00 0.00 0.00 52 1012.4
20190425030142 70 119 0.0 0.0 0.00 0.00 0.00 50 1012.2
20190425024637 69 119 0.0 0.0 0.00 0.00 0.00 51 1012.1
20190425023026 69 119 0.0 0.0 0.00 0.00 0.00 51 1012.1
20190425020146 71 119 0.0 0.0 0.00 0.00 0.00 46 1012.1
20190425014551 71 119 0.0 0.0 0.00 0.00 0.00 44 1012.0
20190425010053 73 119 0.0 0.0 0.00 0.00 0.00 45 1011.7
20190425004504 74 119 0.0 0.0 0.00 0.00 0.00 42 1011.3
20190425001625 76 119 0.0 0.0 0.00 0.00 0.00 38 1011.2
20190424234658 78 119 0.0 1.0 0.00 0.00 0.00 35 1011.2
20190424233042 79 120 0.0 1.0 0.00 0.00 0.00 33 1011.1
20190424224719 81 62 0.0 2.0 0.00 0.00 0.00 33 1011.1
20190424223054 81 95 0.0 2.0 0.00 0.00 0.00 32 1011.2
20190424220107 81 160 0.0 1.0 0.00 0.00 0.00 30 1011.3
20190424214531 82 58 0.0 1.0 0.00 0.00 0.00 31 1011.3
20190424211613 82 74 0.0 4.0 0.00 0.00 0.00 28 1011.2
20190424210012 82 319 0.0 1.0 0.00 0.00 0.00 32 1011.4